Time;durP1;ratioP1;P1;durP2;ratioP2;P2;SDS_P1;SDS_P2;PMS_P1;PMS_P2;Temp;Humidity;BMP_temperature;BMP_pressure;BME280_temperature;BME280_humidity;BME280_pressure;Samples;Min_cycle;Max_cycle;Signal;HPM_P1;HPM_P2
2022/06/15 00:00:08;;;;;;;4.95;3.60;;;;;;;;;;5114441;28;20089;-59
2022/06/15 00:02:34;;;;;;;8.02;3.70;;;;;;;;;;5114353;28;20043;-59
2022/06/15 00:05:00;;;;;;;8.68;3.92;;;;;;;;;;5114744;28;20044;-59
2022/06/15 00:07:26;;;;;;;4.88;3.42;;;;;;;;;;5114422;28;20043;-59
2022/06/15 00:09:52;;;;;;;6.93;3.50;;;;;;;;;;5114356;28;20050;-59
2022/06/15 00:12:18;;;;;;;5.70;3.72;;;;;;;;;;5114272;28;20377;-59
2022/06/15 00:14:44;;;;;;;5.20;3.60;;;;;;;;;;5096441;28;20173;-59
2022/06/15 00:17:10;;;;;;;6.95;3.47;;;;;;;;;;5113885;28;20043;-59
2022/06/15 00:19:36;;;;;;;5.30;3.63;;;;;;;;;;5114220;28;20040;-59
2022/06/15 00:22:02;;;;;;;5.50;3.15;;;;;;;;;;5114198;28;20042;-59
2022/06/15 00:24:29;;;;;;;7.35;4.10;;;;;;;;;;5114320;28;20035;-59
2022/06/15 00:26:56;;;;;;;6.88;3.63;;;;;;;;;;5114060;28;20055;-59
2022/06/15 00:29:22;;;;;;;5.15;3.30;;;;;;;;;;5113706;28;20078;-59
2022/06/15 00:31:48;;;;;;;6.75;3.80;;;;;;;;;;5114093;28;20036;-59
2022/06/15 00:34:14;;;;;;;4.63;3.53;;;;;;;;;;5114148;28;20039;-59
2022/06/15 00:36:40;;;;;;;7.03;3.65;;;;;;;;;;5113502;28;20050;-59
2022/06/15 00:39:06;;;;;;;5.40;3.35;;;;;;;;;;5113470;28;20126;-59
2022/06/15 00:41:33;;;;;;;5.32;3.22;;;;;;;;;;5113611;28;20063;-59
2022/06/15 00:44:19;;;;;;;6.72;3.13;;;;;;;;;;5113756;28;20485;-59
2022/06/15 00:46:47;;;;;;;5.95;3.15;;;;;;;;;;5113159;28;20039;-59
2022/06/15 00:49:18;;;;;;;6.10;3.67;;;;;;;;;;5113470;28;20042;-59
2022/06/15 00:51:48;;;;;;;6.88;3.53;;;;;;;;;;5113435;28;20043;-59
2022/06/15 00:54:14;;;;;;;8.20;3.60;;;;;;;;;;5113641;28;20035;-59
2022/06/15 00:56:41;;;;;;;7.40;3.53;;;;;;;;;;5113245;28;20040;-59
2022/06/15 00:59:14;;;;;;;8.75;4.13;;;;;;;;;;5113365;28;20035;-59
2022/06/15 01:01:41;;;;;;;4.63;3.67;;;;;;;;;;5113456;28;20031;-59
2022/06/15 01:04:08;;;;;;;7.00;3.75;;;;;;;;;;5113438;28;20046;-59
2022/06/15 01:06:46;;;;;;;5.00;3.45;;;;;;;;;;5113252;28;20400;-59
2022/06/15 01:09:21;;;;;;;6.18;4.03;;;;;;;;;;5112832;28;20571;-59
2022/06/15 01:11:47;;;;;;;10.65;4.57;;;;;;;;;;5113511;28;20055;-59
2022/06/15 01:14:19;;;;;;;6.55;3.60;;;;;;;;;;5113332;28;20485;-59
2022/06/15 01:16:49;;;;;;;4.53;3.55;;;;;;;;;;5112949;28;20173;-59
2022/06/15 01:19:30;;;;;;;7.63;4.32;;;;;;;;;;5112760;28;20123;-59
2022/06/15 01:22:02;;;;;;;7.18;4.05;;;;;;;;;;5113114;28;20036;-59
2022/06/15 01:24:31;;;;;;;10.55;4.07;;;;;;;;;;5112999;28;20393;-59
2022/06/15 01:27:23;;;;;;;10.32;4.88;;;;;;;;;;5113028;28;20062;-59
2022/06/15 01:30:07;;;;;;;6.10;4.10;;;;;;;;;;5109646;28;20052;-59
2022/06/15 01:32:40;;;;;;;8.05;4.30;;;;;;;;;;5112940;28;20116;-59
2022/06/15 01:35:06;;;;;;;8.07;4.55;;;;;;;;;;5112991;28;20496;-59
2022/06/15 01:38:01;;;;;;;10.98;4.60;;;;;;;;;;5112567;28;20086;-59
2022/06/15 01:40:35;;;;;;;9.05;4.75;;;;;;;;;;5098768;28;20050;-59
2022/06/15 01:43:08;;;;;;;6.63;4.55;;;;;;;;;;5112908;28;20394;-59
2022/06/15 01:45:35;;;;;;;7.78;4.57;;;;;;;;;;5112983;28;20044;-59
2022/06/15 01:48:04;;;;;;;9.23;4.47;;;;;;;;;;5112052;28;20499;-59
2022/06/15 01:50:32;;;;;;;6.88;4.55;;;;;;;;;;5112320;28;20047;-59
2022/06/15 01:53:21;;;;;;;10.48;4.75;;;;;;;;;;5112311;28;20043;-59
2022/06/15 01:55:53;;;;;;;7.82;4.95;;;;;;;;;;5104373;28;20058;-59
2022/06/15 01:58:22;;;;;;;8.73;4.93;;;;;;;;;;5112396;28;20043;-59
2022/06/15 02:00:53;;;;;;;10.00;5.40;;;;;;;;;;5112274;28;20042;-59
2022/06/15 02:03:39;;;;;;;11.07;5.32;;;;;;;;;;5112354;28;20074;-59
2022/06/15 02:06:16;;;;;;;12.43;5.70;;;;;;;;;;5112564;28;20092;-59
2022/06/15 02:08:48;;;;;;;8.23;5.03;;;;;;;;;;5094142;28;20047;-59
2022/06/15 02:11:22;;;;;;;6.80;4.82;;;;;;;;;;5112386;28;20035;-59
2022/06/15 02:13:55;;;;;;;8.52;4.80;;;;;;;;;;5112738;28;20488;-59
2022/06/15 02:16:39;;;;;;;9.45;5.10;;;;;;;;;;5112466;28;20389;-59
2022/06/15 02:19:08;;;;;;;10.60;5.05;;;;;;;;;;5111854;28;20401;-59
2022/06/15 02:21:36;;;;;;;9.27;5.50;;;;;;;;;;5112258;28;20046;-59
2022/06/15 02:24:04;;;;;;;9.68;5.47;;;;;;;;;;5112134;28;20067;-59
2022/06/15 02:26:31;;;;;;;9.30;5.78;;;;;;;;;;5112409;28;20050;-59
2022/06/15 02:29:00;;;;;;;7.72;5.57;;;;;;;;;;5111888;28;20049;-59
2022/06/15 02:31:27;;;;;;;8.65;5.60;;;;;;;;;;5112245;28;20473;-59
2022/06/15 02:33:54;;;;;;;10.75;5.53;;;;;;;;;;5112148;28;20075;-59
2022/06/15 02:36:20;;;;;;;9.98;5.70;;;;;;;;;;5093917;28;20043;-59
2022/06/15 02:38:49;;;;;;;10.93;5.65;;;;;;;;;;5111504;28;20187;-59
2022/06/15 02:41:16;;;;;;;7.68;5.40;;;;;;;;;;5126383;22;20047;-61
2022/06/15 02:43:43;;;;;;;9.50;5.57;;;;;;;;;;5112117;28;20046;-61
2022/06/15 02:46:10;;;;;;;10.15;5.70;;;;;;;;;;5112169;28;20039;-61
2022/06/15 02:48:37;;;;;;;12.35;5.82;;;;;;;;;;5111724;28;20044;-61
2022/06/15 02:51:09;;;;;;;8.45;5.57;;;;;;;;;;5111957;28;20077;-61
2022/06/15 02:53:37;;;;;;;11.18;5.88;;;;;;;;;;5112113;28;20051;-61
2022/06/15 02:56:05;;;;;;;11.90;6.30;;;;;;;;;;5112068;28;20036;-61
2022/06/15 02:58:31;;;;;;;12.40;6.18;;;;;;;;;;5113399;28;20043;-61
2022/06/15 03:00:57;;;;;;;11.38;5.90;;;;;;;;;;5115682;28;20035;-60
2022/06/15 03:03:24;;;;;;;12.30;6.25;;;;;;;;;;5115652;28;20138;-61
2022/06/15 03:05:50;;;;;;;10.27;6.50;;;;;;;;;;5115563;28;20503;-61
2022/06/15 03:08:17;;;;;;;9.73;5.95;;;;;;;;;;5115728;28;20043;-61
2022/06/15 03:10:43;;;;;;;10.57;6.40;;;;;;;;;;5115484;28;20086;-61
2022/06/15 03:13:10;;;;;;;10.50;7.05;;;;;;;;;;5115683;28;20075;-61
2022/06/15 03:15:36;;;;;;;10.40;6.95;;;;;;;;;;5115445;28;20051;-61
2022/06/15 03:18:02;;;;;;;13.27;6.88;;;;;;;;;;5115293;28;20489;-61
2022/06/15 03:20:28;;;;;;;12.13;6.68;;;;;;;;;;5115124;28;20110;-61
2022/06/15 03:22:54;;;;;;;10.57;6.93;;;;;;;;;;5115568;28;20067;-61
2022/06/15 03:25:20;;;;;;;12.25;6.97;;;;;;;;;;5097286;28;20396;-61
2022/06/15 03:27:46;;;;;;;14.75;7.15;;;;;;;;;;5115423;28;20036;-61
2022/06/15 03:30:13;;;;;;;12.68;6.82;;;;;;;;;;5114982;28;20081;-61
2022/06/15 03:32:39;;;;;;;13.40;7.15;;;;;;;;;;5115141;28;20397;-60
2022/06/15 03:35:05;;;;;;;11.20;7.28;;;;;;;;;;5096757;28;20050;-60
2022/06/15 03:37:31;;;;;;;15.70;7.35;;;;;;;;;;5115275;28;20043;-62
2022/06/15 03:39:57;;;;;;;12.82;7.80;;;;;;;;;;5114784;28;20071;-60
2022/06/15 03:42:24;;;;;;;12.68;7.18;;;;;;;;;;5115013;28;20062;-61
2022/06/15 03:44:51;;;;;;;12.98;7.70;;;;;;;;;;5115015;28;20036;-60
2022/06/15 03:47:17;;;;;;;11.73;7.90;;;;;;;;;;5114844;28;20508;-61
2022/06/15 03:49:53;;;;;;;13.32;8.25;;;;;;;;;;5114463;28;20120;-61
2022/06/15 03:52:21;;;;;;;12.55;7.85;;;;;;;;;;5114975;28;20039;-60
2022/06/15 03:54:47;;;;;;;12.60;7.75;;;;;;;;;;5114653;28;20434;-61
2022/06/15 03:57:14;;;;;;;14.90;8.15;;;;;;;;;;5096397;28;20124;-61
2022/06/15 03:59:40;;;;;;;11.65;7.53;;;;;;;;;;5114383;28;20031;-61
2022/06/15 04:02:06;;;;;;;14.50;8.00;;;;;;;;;;5114450;28;20036;-61
2022/06/15 04:04:32;;;;;;;10.60;7.80;;;;;;;;;;5114747;28;20028;-60
2022/06/15 04:06:59;;;;;;;14.38;8.38;;;;;;;;;;5096184;28;20493;-61
2022/06/15 04:09:25;;;;;;;13.65;7.72;;;;;;;;;;5113684;28;20044;-60
2022/06/15 04:11:58;;;;;;;13.18;8.50;;;;;;;;;;5114447;28;20040;-61
2022/06/15 04:14:24;;;;;;;15.20;8.27;;;;;;;;;;5096312;28;20545;-61
2022/06/15 04:16:53;;;;;;;15.30;8.20;;;;;;;;;;5114158;28;20431;-61
2022/06/15 04:19:27;;;;;;;12.57;8.55;;;;;;;;;;5114110;28;20062;-60
2022/06/15 04:21:53;;;;;;;13.38;9.20;;;;;;;;;;5114307;28;20067;-61
2022/06/15 04:24:20;;;;;;;15.40;9.00;;;;;;;;;;5114193;28;20032;-61
2022/06/15 04:26:47;;;;;;;13.77;9.02;;;;;;;;;;5114254;28;20053;-61
2022/06/15 04:29:13;;;;;;;14.60;9.43;;;;;;;;;;5113704;28;20043;-60
2022/06/15 04:31:39;;;;;;;13.73;9.18;;;;;;;;;;5114127;28;20047;-61
2022/06/15 04:34:06;;;;;;;17.98;9.23;;;;;;;;;;5114065;28;20050;-61
2022/06/15 04:36:32;;;;;;;17.02;9.20;;;;;;;;;;5114003;28;20040;-60
2022/06/15 04:38:58;;;;;;;16.85;9.68;;;;;;;;;;5113695;28;20036;-61
2022/06/15 04:41:25;;;;;;;18.85;10.00;;;;;;;;;;5113659;28;20067;-61
2022/06/15 04:43:51;;;;;;;17.98;9.43;;;;;;;;;;5113744;28;20442;-61
2022/06/15 04:46:17;;;;;;;18.40;10.43;;;;;;;;;;5113831;28;20082;-61
2022/06/15 04:48:43;;;;;;;16.17;9.40;;;;;;;;;;5113623;28;20039;-61
2022/06/15 04:51:14;;;;;;;16.17;9.07;;;;;;;;;;5113662;28;20032;-61
2022/06/15 04:53:39;;;;;;;16.17;9.55;;;;;;;;;;5113625;28;20520;-61
2022/06/15 04:56:06;;;;;;;16.70;10.07;;;;;;;;;;5113320;28;20092;-61
2022/06/15 04:58:32;;;;;;;16.55;9.85;;;;;;;;;;5113515;28;20036;-61
2022/06/15 05:00:58;;;;;;;15.45;9.93;;;;;;;;;;5113459;28;20039;-61
2022/06/15 05:03:24;;;;;;;16.20;9.70;;;;;;;;;;5113629;28;20036;-61
2022/06/15 05:05:54;;;;;;;13.95;9.48;;;;;;;;;;5113255;28;20036;-61
2022/06/15 05:08:20;;;;;;;15.50;9.48;;;;;;;;;;5095290;28;20047;-61
2022/06/15 05:10:46;;;;;;;19.38;9.15;;;;;;;;;;5112803;28;20543;-61
2022/06/15 05:13:12;;;;;;;14.65;9.20;;;;;;;;;;5113412;28;20039;-61
2022/06/15 05:15:38;;;;;;;17.67;9.73;;;;;;;;;;5113195;28;20039;-61
2022/06/15 05:18:06;;;;;;;14.02;8.93;;;;;;;;;;5113166;28;20366;-61
2022/06/15 05:20:35;;;;;;;16.95;8.50;;;;;;;;;;5112838;28;20057;-61
2022/06/15 05:23:02;;;;;;;15.45;8.85;;;;;;;;;;5112287;28;20098;-61
2022/06/15 05:25:28;;;;;;;16.02;9.73;;;;;;;;;;5112879;28;20075;-61
2022/06/15 05:27:54;;;;;;;15.60;9.27;;;;;;;;;;5113357;28;20043;-60
2022/06/15 05:30:20;;;;;;;15.73;8.25;;;;;;;;;;5112660;28;20032;-61
2022/06/15 05:32:46;;;;;;;15.63;7.90;;;;;;;;;;5094871;28;20087;-61
2022/06/15 05:35:12;;;;;;;13.68;8.20;;;;;;;;;;5112848;28;20046;-61
2022/06/15 05:37:38;;;;;;;15.60;7.75;;;;;;;;;;5112792;28;20039;-61
2022/06/15 05:40:05;;;;;;;15.15;7.45;;;;;;;;;;5112317;28;20032;-61
2022/06/15 05:42:31;;;;;;;12.05;7.15;;;;;;;;;;5112563;28;20493;-61
2022/06/15 05:44:57;;;;;;;12.68;8.13;;;;;;;;;;5112801;28;20111;-61
2022/06/15 05:47:23;;;;;;;13.88;7.28;;;;;;;;;;5112578;28;20572;-61
2022/06/15 05:49:49;;;;;;;12.20;7.68;;;;;;;;;;5112502;28;20074;-61
2022/06/15 05:52:15;;;;;;;13.43;7.75;;;;;;;;;;5112453;28;20039;-60
2022/06/15 05:54:41;;;;;;;11.27;7.60;;;;;;;;;;5112479;28;20088;-61
2022/06/15 05:57:18;;;;;;;11.63;7.35;;;;;;;;;;5094222;28;20044;-61
2022/06/15 05:59:44;;;;;;;12.38;7.60;;;;;;;;;;5112456;28;20035;-61
2022/06/15 06:02:11;;;;;;;11.77;7.35;;;;;;;;;;5112404;28;20039;-61
2022/06/15 06:04:37;;;;;;;11.90;7.55;;;;;;;;;;5112470;28;20043;-61
2022/06/15 06:07:03;;;;;;;13.93;7.60;;;;;;;;;;5112199;28;20047;-61
2022/06/15 06:09:29;;;;;;;8.48;6.70;;;;;;;;;;5112404;28;20397;-61
2022/06/15 06:11:55;;;;;;;12.25;6.97;;;;;;;;;;5112395;28;20071;-61
2022/06/15 06:14:21;;;;;;;10.30;7.00;;;;;;;;;;5112649;28;20047;-61
2022/06/15 06:16:47;;;;;;;13.63;7.15;;;;;;;;;;5112153;28;20481;-61
2022/06/15 06:19:13;;;;;;;11.90;6.88;;;;;;;;;;5112065;28;20047;-61
2022/06/15 06:21:39;;;;;;;12.63;7.00;;;;;;;;;;5112039;28;20036;-61
2022/06/15 06:24:06;;;;;;;10.45;6.60;;;;;;;;;;5094064;28;20035;-61
2022/06/15 06:26:32;;;;;;;10.20;6.75;;;;;;;;;;5093908;28;20043;-61
2022/06/15 06:28:59;;;;;;;10.35;6.90;;;;;;;;;;5111897;28;20515;-61
2022/06/15 06:31:25;;;;;;;11.43;6.30;;;;;;;;;;5112156;28;20039;-61
2022/06/15 06:33:51;;;;;;;12.27;6.35;;;;;;;;;;5114763;28;20115;-61
2022/06/15 06:36:32;;;;;;;10.05;6.35;;;;;;;;;;5115921;28;20564;-61
2022/06/15 06:38:59;;;;;;;10.10;5.87;;;;;;;;;;5116203;28;20028;-61
2022/06/15 06:41:25;;;;;;;10.80;6.38;;;;;;;;;;5116087;28;20756;-61
2022/06/15 06:43:52;;;;;;;10.63;6.07;;;;;;;;;;5116171;28;20032;-61
2022/06/15 06:46:18;;;;;;;9.52;5.68;;;;;;;;;;5116092;28;20040;-61
2022/06/15 06:48:44;;;;;;;10.02;6.07;;;;;;;;;;5115757;28;20038;-61
2022/06/15 06:51:10;;;;;;;10.90;6.22;;;;;;;;;;5116095;28;20032;-61
2022/06/15 06:53:36;;;;;;;10.90;6.20;;;;;;;;;;5116068;28;20404;-61
2022/06/15 06:56:03;;;;;;;9.88;5.55;;;;;;;;;;5115872;28;20044;-61
2022/06/15 06:58:30;;;;;;;12.45;6.00;;;;;;;;;;5115751;28;20063;-61
2022/06/15 07:00:56;;;;;;;9.95;5.13;;;;;;;;;;5115771;28;20044;-61
2022/06/15 07:03:22;;;;;;;11.38;5.65;;;;;;;;;;5115693;28;20123;-61
2022/06/15 07:05:49;;;;;;;10.93;5.80;;;;;;;;;;5116001;28;20047;-61
2022/06/15 07:08:15;;;;;;;9.60;5.57;;;;;;;;;;5115765;28;20128;-61
2022/06/15 07:10:41;;;;;;;9.95;6.07;;;;;;;;;;5115261;28;20393;-61
2022/06/15 07:13:07;;;;;;;13.48;6.28;;;;;;;;;;5115603;28;20047;-61
2022/06/15 07:15:34;;;;;;;7.40;5.13;;;;;;;;;;5097491;28;20513;-61
2022/06/15 07:18:00;;;;;;;14.68;6.00;;;;;;;;;;5115357;28;20035;-61
2022/06/15 07:20:27;;;;;;;10.40;5.60;;;;;;;;;;5115412;28;20043;-61
2022/06/15 07:22:54;;;;;;;13.77;5.97;;;;;;;;;;5115410;28;20031;-61
2022/06/15 07:25:20;;;;;;;10.38;5.45;;;;;;;;;;5115403;28;20043;-61
2022/06/15 07:27:46;;;;;;;8.80;4.90;;;;;;;;;;5115309;28;20458;-61
2022/06/15 07:30:14;;;;;;;11.07;5.60;;;;;;;;;;5115058;28;20119;-61
2022/06/15 07:32:41;;;;;;;9.15;4.85;;;;;;;;;;5115282;28;20089;-61
2022/06/15 07:35:08;;;;;;;9.27;5.15;;;;;;;;;;5115419;28;20088;-61
2022/06/15 07:37:34;;;;;;;11.27;4.60;;;;;;;;;;5115135;28;20040;-61
2022/06/15 07:40:00;;;;;;;9.15;3.97;;;;;;;;;;5096548;28;20040;-61
2022/06/15 07:42:26;;;;;;;8.13;4.13;;;;;;;;;;5114710;28;20408;-61
2022/06/15 07:44:52;;;;;;;6.22;3.85;;;;;;;;;;5113944;28;20032;-61
2022/06/15 07:50:03;;;;;;;7.75;3.80;;;;;;;;;;5114888;28;20039;-61
2022/06/15 07:52:34;;;;;;;7.88;4.07;;;;;;;;;;5114703;28;20097;-61
2022/06/15 07:55:00;;;;;;;7.88;3.72;;;;;;;;;;5114887;28;20435;-62
2022/06/15 07:57:27;;;;;;;11.27;3.97;;;;;;;;;;5114417;28;20036;-62
2022/06/15 07:59:53;;;;;;;7.28;3.55;;;;;;;;;;5114408;28;20481;-62
2022/06/15 08:02:19;;;;;;;9.98;3.30;;;;;;;;;;5114700;28;20047;-61
2022/06/15 08:04:45;;;;;;;9.10;3.10;;;;;;;;;;5114762;28;20092;-61
2022/06/15 08:07:13;;;;;;;6.63;2.28;;;;;;;;;;5114589;28;20085;-61
2022/06/15 08:09:39;;;;;;;5.88;2.55;;;;;;;;;;5114285;28;20437;-61
2022/06/15 08:12:11;;;;;;;5.45;2.53;;;;;;;;;;5114154;28;20393;-61
2022/06/15 08:14:43;;;;;;;6.13;2.45;;;;;;;;;;5114687;28;20058;-61
2022/06/15 08:17:12;;;;;;;7.00;2.53;;;;;;;;;;5114334;28;20119;-61
2022/06/15 08:19:40;;;;;;;4.47;2.25;;;;;;;;;;5113953;28;20476;-61
2022/06/15 08:22:07;;;;;;;4.18;1.70;;;;;;;;;;5096151;28;20388;-61
2022/06/15 08:24:34;;;;;;;4.05;1.90;;;;;;;;;;5114091;28;20400;-62
2022/06/15 08:27:00;;;;;;;4.00;1.80;;;;;;;;;;5114130;28;20059;-62
2022/06/15 08:29:26;;;;;;;5.88;2.00;;;;;;;;;;5113972;28;20047;-62
2022/06/15 08:31:56;;;;;;;6.18;2.15;;;;;;;;;;5114117;28;20092;-62
2022/06/15 08:34:23;;;;;;;4.43;2.80;;;;;;;;;;5114090;28;20122;-62
2022/06/15 08:36:49;;;;;;;6.45;2.30;;;;;;;;;;5114378;28;20046;-61
2022/06/15 08:39:15;;;;;;;3.88;1.92;;;;;;;;;;5113537;28;20039;-62
2022/06/15 08:41:45;;;;;;;7.32;1.75;;;;;;;;;;5128666;22;20035;-60
2022/06/15 08:44:10;;;;;;;3.27;1.50;;;;;;;;;;5113882;28;20042;-60
2022/06/15 08:46:46;;;;;;;5.43;1.90;;;;;;;;;;5113786;28;20110;-60
2022/06/15 08:49:12;;;;;;;3.42;1.50;;;;;;;;;;5113404;28;20066;-60
2022/06/15 08:51:39;;;;;;;2.97;1.80;;;;;;;;;;5113419;28;20130;-60
2022/06/15 08:54:17;;;;;;;6.10;2.17;;;;;;;;;;5113530;28;20485;-60
2022/06/15 08:56:49;;;;;;;4.97;1.80;;;;;;;;;;5113574;28;20119;-60
2022/06/15 08:59:34;;;;;;;4.57;2.10;;;;;;;;;;5113189;28;20507;-60
2022/06/15 09:02:09;;;;;;;4.80;1.90;;;;;;;;;;5113248;28;20078;-60
2022/06/15 09:04:35;;;;;;;3.50;1.52;;;;;;;;;;5113349;28;20042;-60
2022/06/15 09:07:27;;;;;;;3.95;2.00;;;;;;;;;;5113490;28;20071;-60
2022/06/15 09:10:08;;;;;;;2.75;1.60;;;;;;;;;;5089401;28;20054;-59
2022/06/15 09:12:58;;;;;;;4.30;2.55;;;;;;;;;;5113606;28;20493;-59
2022/06/15 09:15:24;;;;;;;3.35;1.67;;;;;;;;;;5113497;28;20443;-60
2022/06/15 09:17:52;;;;;;;3.47;1.80;;;;;;;;;;5113208;28;20051;-60
2022/06/15 09:20:25;;;;;;;4.88;1.90;;;;;;;;;;5112918;28;20036;-60
2022/06/15 09:22:55;;;;;;;4.75;1.65;;;;;;;;;;5112529;28;20036;-60
2022/06/15 09:25:31;;;;;;;3.38;1.50;;;;;;;;;;5113297;28;20075;-60
2022/06/15 09:28:00;;;;;;;3.63;2.13;;;;;;;;;;5112922;28;20039;-59
2022/06/15 09:30:31;;;;;;;6.35;1.60;;;;;;;;;;5112843;28;20051;-60
2022/06/15 09:33:04;;;;;;;4.93;1.90;;;;;;;;;;5112673;28;20127;-60
2022/06/15 09:35:41;;;;;;;5.28;1.77;;;;;;;;;;5112760;28;20051;-60
2022/06/15 09:38:10;;;;;;;4.95;1.92;;;;;;;;;;5112992;28;20035;-60
2022/06/15 09:40:56;;;;;;;5.50;2.20;;;;;;;;;;5112622;28;20043;-60
2022/06/15 09:43:22;;;;;;;5.05;2.40;;;;;;;;;;5112476;28;20563;-59
2022/06/15 09:46:07;;;;;;;5.78;2.30;;;;;;;;;;5112636;28;20066;-60
2022/06/15 09:48:47;;;;;;;5.72;2.28;;;;;;;;;;5112542;28;20039;-60
2022/06/15 09:51:34;;;;;;;3.03;2.20;;;;;;;;;;5112632;28;20035;-60
2022/06/15 09:54:16;;;;;;;6.47;2.40;;;;;;;;;;5112502;28;20040;-60
2022/06/15 09:56:42;;;;;;;3.92;2.38;;;;;;;;;;5112433;28;20123;-60
2022/06/15 09:59:10;;;;;;;4.10;2.08;;;;;;;;;;5112212;28;20546;-60
2022/06/15 10:01:39;;;;;;;3.67;2.20;;;;;;;;;;5112343;28;20081;-60
2022/06/15 10:04:06;;;;;;;6.35;2.42;;;;;;;;;;5112465;28;20123;-60
2022/06/15 10:06:38;;;;;;;3.78;2.05;;;;;;;;;;5112415;28;20131;-60
2022/06/15 10:09:07;;;;;;;7.15;2.40;;;;;;;;;;5111758;28;20083;-60
2022/06/15 10:11:40;;;;;;;5.20;2.30;;;;;;;;;;5112457;28;20070;-60
2022/06/15 10:14:19;;;;;;;5.25;2.30;;;;;;;;;;5112333;28;20043;-60
2022/06/15 10:16:51;;;;;;;4.00;2.10;;;;;;;;;;5112303;28;20048;-60
2022/06/15 10:19:17;;;;;;;4.88;2.05;;;;;;;;;;5112015;28;20084;-59
2022/06/15 10:21:44;;;;;;;5.28;2.00;;;;;;;;;;5112051;28;20532;-60
2022/06/15 10:24:25;;;;;;;5.85;2.10;;;;;;;;;;5112178;28;20504;-60
2022/06/15 10:26:52;;;;;;;3.83;2.30;;;;;;;;;;5112424;28;20039;-60
2022/06/15 10:29:18;;;;;;;4.30;2.00;;;;;;;;;;5111902;28;20156;-60
2022/06/15 10:31:56;;;;;;;5.22;2.40;;;;;;;;;;5111957;28;20064;-60
2022/06/15 10:34:25;;;;;;;6.30;2.47;;;;;;;;;;5112098;28;20124;-60
2022/06/15 10:36:55;;;;;;;5.13;2.00;;;;;;;;;;5112125;28;20108;-60
2022/06/15 10:39:32;;;;;;;5.40;2.10;;;;;;;;;;5111940;28;20036;-60
2022/06/15 10:42:00;;;;;;;5.40;1.80;;;;;;;;;;5111832;28;20070;-60
2022/06/15 10:44:31;;;;;;;2.33;2.03;;;;;;;;;;5112230;28;20048;-60
2022/06/15 10:46:57;;;;;;;;;;;;;;;;;;5112645;28;20040;-60
2022/06/15 10:49:23;;;;;;;4.30;1.90;;;;;;;;;;5111940;28;19922;-60
2022/06/15 10:51:50;;;;;;;6.20;2.10;;;;;;;;;;5111821;28;20051;-60
2022/06/15 10:54:22;;;;;;;4.45;2.33;;;;;;;;;;5111871;28;20408;-60
2022/06/15 11:02:19;;;;;;;4.72;1.80;;;;;;;;;;5111840;28;20165;-60
2022/06/15 11:04:45;;;;;;;3.20;2.00;;;;;;;;;;5111859;28;20087;-60
2022/06/15 11:07:24;;;;;;;4.72;2.00;;;;;;;;;;5112088;28;20045;-60
2022/06/15 11:09:56;;;;;;;3.28;1.75;;;;;;;;;;5111771;28;20086;-59
2022/06/15 11:12:33;;;;;;;3.92;2.20;;;;;;;;;;5111555;28;20558;-59
2022/06/15 11:15:02;;;;;;;3.67;1.73;;;;;;;;;;5111778;28;20036;-60
2022/06/15 11:20:44;;;;;;;3.88;1.80;;;;;;;;;;5113106;28;20040;-60
2022/06/15 11:23:13;;;;;;;5.45;1.88;;;;;;;;;;5101825;28;20056;-59
2022/06/15 11:25:43;;;;;;;4.55;2.00;;;;;;;;;;5115197;28;20560;-59
2022/06/15 11:28:13;;;;;;;5.38;2.50;;;;;;;;;;5115632;28;20185;-60
2022/06/15 11:30:42;;;;;;;4.50;2.40;;;;;;;;;;5115004;28;20035;-60
2022/06/15 11:33:16;;;;;;;4.60;2.05;;;;;;;;;;5115087;28;20763;-60
2022/06/15 11:36:01;;;;;;;4.35;2.30;;;;;;;;;;5115026;28;20504;-60
2022/06/15 11:38:38;;;;;;;3.90;2.17;;;;;;;;;;5115244;28;20043;-60
2022/06/15 11:41:23;;;;;;;4.30;2.50;;;;;;;;;;5115385;28;20092;-60
2022/06/15 11:43:50;;;;;;;3.78;2.30;;;;;;;;;;5115016;28;20035;-60
2022/06/15 11:46:37;;;;;;;3.50;1.73;;;;;;;;;;5114960;28;20039;-60
2022/06/15 11:49:22;;;;;;;4.53;2.15;;;;;;;;;;5114562;28;20054;-60
2022/06/15 11:52:13;;;;;;;5.32;2.50;;;;;;;;;;5114905;28;20389;-60
2022/06/15 11:54:41;;;;;;;4.80;2.58;;;;;;;;;;5114941;28;20451;-60
2022/06/15 11:57:10;;;;;;;4.40;2.45;;;;;;;;;;5114563;28;20075;-60
2022/06/15 11:59:36;;;;;;;5.85;2.72;;;;;;;;;;5114712;28;20034;-60
2022/06/15 12:02:15;;;;;;;4.57;2.63;;;;;;;;;;5114431;28;20102;-60
2022/06/15 12:05:00;;;;;;;4.97;1.95;;;;;;;;;;5114776;28;20434;-60
2022/06/15 12:07:39;;;;;;;5.97;2.20;;;;;;;;;;5114507;28;20046;-60
2022/06/15 12:10:05;;;;;;;3.08;2.28;;;;;;;;;;5114433;28;20444;-60
2022/06/15 12:12:41;;;;;;;6.85;2.78;;;;;;;;;;5114521;28;20050;-60
2022/06/15 12:15:15;;;;;;;4.03;2.22;;;;;;;;;;5114527;28;20043;-60
2022/06/15 12:17:50;;;;;;;4.50;1.88;;;;;;;;;;5114345;28;20078;-60
2022/06/15 12:20:19;;;;;;;5.25;2.30;;;;;;;;;;5114285;28;20035;-60
2022/06/15 12:22:48;;;;;;;6.18;2.20;;;;;;;;;;5114110;28;20564;-60
2022/06/15 12:25:21;;;;;;;5.53;2.42;;;;;;;;;;5114342;28;20036;-60
2022/06/15 12:27:51;;;;;;;3.00;2.30;;;;;;;;;;5114193;28;20504;-60
2022/06/15 12:30:28;;;;;;;5.22;2.20;;;;;;;;;;5113591;28;20040;-60
2022/06/15 12:33:08;;;;;;;5.22;2.45;;;;;;;;;;5114213;28;20098;-60
2022/06/15 12:35:41;;;;;;;4.93;2.40;;;;;;;;;;5114114;28;20062;-59
2022/06/15 12:38:26;;;;;;;6.60;2.47;;;;;;;;;;5113981;28;20465;-60
2022/06/15 12:42:09;;;;;;;2.90;1.90;;;;;;;;;;5113631;28;20071;-60
2022/06/15 12:43:55;;;;;;;2.63;1.70;;;;;;;;;;5113558;28;20509;-60
2022/06/15 12:46:22;;;;;;;4.60;1.80;;;;;;;;;;5113846;28;20404;-60
2022/06/15 12:48:54;;;;;;;3.15;2.10;;;;;;;;;;5113641;28;20049;-60
2022/06/15 12:51:28;;;;;;;5.70;2.33;;;;;;;;;;5113612;28;20130;-60
2022/06/15 12:54:05;;;;;;;4.90;1.90;;;;;;;;;;5113802;28;20085;-60
2022/06/15 12:56:45;;;;;;;7.07;2.25;;;;;;;;;;5113657;28;20051;-60
2022/06/15 12:59:30;;;;;;;4.97;2.15;;;;;;;;;;5113308;28;20488;-60
2022/06/15 13:02:19;;;;;;;2.83;1.83;;;;;;;;;;5113418;28;20119;-60
2022/06/15 13:04:55;;;;;;;5.10;1.92;;;;;;;;;;5113377;28;20492;-60
2022/06/15 13:07:23;;;;;;;3.92;2.35;;;;;;;;;;5113468;28;20040;-60
2022/06/15 13:10:07;;;;;;;4.05;2.22;;;;;;;;;;5113105;28;20444;-60
2022/06/15 13:12:39;;;;;;;5.18;2.40;;;;;;;;;;5113260;28;20046;-60
2022/06/15 13:15:06;;;;;;;3.58;2.17;;;;;;;;;;5113487;28;20386;-60
2022/06/15 13:18:13;;;;;;;4.80;2.38;;;;;;;;;;5112991;28;20512;-60
2022/06/15 13:20:45;;;;;;;4.22;2.20;;;;;;;;;;5049942;28;20051;-60
2022/06/15 13:23:24;;;;;;;4.18;2.15;;;;;;;;;;5105161;28;20050;-60
2022/06/15 13:25:52;;;;;;;3.53;1.90;;;;;;;;;;5113092;28;20040;-60
2022/06/15 13:28:20;;;;;;;4.95;2.33;;;;;;;;;;5112981;28;20039;-60
2022/06/15 13:30:54;;;;;;;3.78;1.98;;;;;;;;;;5112718;28;20035;-60
2022/06/15 13:33:21;;;;;;;5.25;2.20;;;;;;;;;;5112855;28;20040;-60
2022/06/15 13:36:07;;;;;;;4.90;2.28;;;;;;;;;;5112971;28;20063;-60
2022/06/15 13:38:34;;;;;;;4.90;1.80;;;;;;;;;;5112526;28;20084;-60
2022/06/15 13:41:00;;;;;;;3.85;1.90;;;;;;;;;;5112816;28;20035;-60
2022/06/15 13:43:46;;;;;;;3.60;2.17;;;;;;;;;;5111726;28;20377;-60
2022/06/15 13:46:24;;;;;;;4.05;2.30;;;;;;;;;;5112947;28;20177;-60
2022/06/15 13:48:52;;;;;;;4.28;2.10;;;;;;;;;;5112383;28;20562;-60
2022/06/15 13:51:22;;;;;;;5.25;2.00;;;;;;;;;;5112610;28;20047;-60
2022/06/15 13:53:58;;;;;;;4.18;1.90;;;;;;;;;;5112480;28;20110;-59
2022/06/15 13:56:43;;;;;;;5.60;2.08;;;;;;;;;;5112420;28;20487;-59
2022/06/15 13:59:21;;;;;;;3.83;1.92;;;;;;;;;;5112523;28;20118;-60
2022/06/15 14:01:53;;;;;;;4.28;2.00;;;;;;;;;;5094459;28;20078;-60
2022/06/15 14:04:27;;;;;;;4.35;2.00;;;;;;;;;;5112808;28;20044;-60
2022/06/15 14:07:07;;;;;;;2.95;1.60;;;;;;;;;;5112774;28;20055;-60
2022/06/15 14:09:33;;;;;;;3.88;2.08;;;;;;;;;;5112416;28;20048;-60
2022/06/15 14:12:03;;;;;;;3.58;1.80;;;;;;;;;;5112232;28;20043;-60
2022/06/15 14:14:35;;;;;;;5.38;2.03;;;;;;;;;;5112233;28;20069;-60
2022/06/15 14:17:13;;;;;;;3.72;2.00;;;;;;;;;;5112394;28;20084;-60
2022/06/15 14:19:44;;;;;;;3.67;1.85;;;;;;;;;;5112210;28;20031;-60
2022/06/15 14:22:16;;;;;;;4.38;1.85;;;;;;;;;;5112240;28;20114;-60
2022/06/15 14:24:42;;;;;;;4.80;2.03;;;;;;;;;;5112254;28;20400;-60
2022/06/15 14:27:10;;;;;;;4.28;1.98;;;;;;;;;;5112083;28;20458;-60
2022/06/15 14:29:38;;;;;;;2.55;1.63;;;;;;;;;;5112004;28;20040;-60
2022/06/15 14:32:05;;;;;;;3.35;2.05;;;;;;;;;;5112229;28;20088;-60
2022/06/15 14:34:32;;;;;;;2.58;1.70;;;;;;;;;;5112145;28;20353;-60
2022/06/15 14:36:58;;;;;;;5.28;1.83;;;;;;;;;;5112164;28;20415;-60
2022/06/15 14:39:29;;;;;;;4.65;2.03;;;;;;;;;;5111819;28;20031;-60
2022/06/15 14:41:55;;;;;;;;;;;;;;;;;;5127279;22;21159;-62
2022/06/15 14:44:22;;;;;;;6.10;2.15;;;;;;;;;;5112235;28;19923;-62
2022/06/15 14:46:51;;;;;;;3.78;1.95;;;;;;;;;;5112359;28;20473;-62
2022/06/15 14:49:24;;;;;;;3.33;2.47;;;;;;;;;;5112206;28;20044;-62
2022/06/15 14:51:50;;;;;;;6.28;2.08;;;;;;;;;;5112024;28;20047;-62
2022/06/15 14:54:18;;;;;;;4.25;1.73;;;;;;;;;;5113307;28;20097;-62
2022/06/15 14:56:47;;;;;;;4.15;1.83;;;;;;;;;;5116056;28;20123;-62
2022/06/15 14:59:19;;;;;;;5.45;2.30;;;;;;;;;;5115712;28;20045;-62
2022/06/15 15:01:59;;;;;;;5.28;2.40;;;;;;;;;;5115840;28;20568;-62
2022/06/15 15:04:25;;;;;;;3.38;1.92;;;;;;;;;;5115752;28;20045;-62
2022/06/15 15:06:56;;;;;;;4.38;2.20;;;;;;;;;;5115750;28;20047;-62